Time;durP1;ratioP1;P1;durP2;ratioP2;P2;SDS_P1;SDS_P2;PMS_P1;PMS_P2;Temp;Humidity;BMP_temperature;BMP_pressure;BME280_temperature;BME280_humidity;BME280_pressure;Samples;Min_cycle;Max_cycle;Signal;HPM_P1;HPM_P2
2022/06/17 00:01:54;;;;;;;3.45;2.30;;;16.30;99.90;;;;;;5095641;28;20209;-83
2022/06/17 00:04:20;;;;;;;3.13;2.00;;;16.30;99.90;;;;;;5094306;28;20209;-84
2022/06/17 00:06:55;;;;;;;3.40;2.55;;;16.30;99.90;;;;;;5095469;28;20646;-84
2022/06/17 00:09:23;;;;;;;2.17;2.00;;;16.30;99.90;;;;;;5094646;28;20205;-84
2022/06/17 00:11:49;;;;;;;2.67;2.30;;;16.20;99.90;;;;;;5096888;28;20171;-84
2022/06/17 00:14:22;;;;;;;2.60;2.08;;;16.20;99.90;;;;;;5105836;28;20210;-84
2022/06/17 00:16:48;;;;;;;3.85;2.70;;;16.20;99.90;;;;;;5108131;28;20165;-84
2022/06/17 00:19:14;;;;;;;3.45;2.50;;;16.20;99.90;;;;;;5107506;28;20193;-85
2022/06/17 00:21:44;;;;;;;2.15;1.95;;;16.20;99.90;;;;;;5106611;28;20178;-85
2022/06/17 00:24:23;;;;;;;4.22;2.28;;;16.20;99.90;;;;;;5104307;28;20190;-85
2022/06/17 00:26:50;;;;;;;4.15;2.45;;;16.20;99.90;;;;;;5093753;28;20166;-85
2022/06/17 00:29:19;;;;;;;2.95;2.55;;;16.20;99.90;;;;;;5094820;28;20364;-85
2022/06/17 00:31:44;;;;;;;2.75;2.30;;;16.20;99.90;;;;;;5093645;28;20531;-86
2022/06/17 00:34:10;;;;;;;3.28;2.20;;;16.30;99.90;;;;;;5077038;28;20197;-83
2022/06/17 00:36:36;;;;;;;3.20;2.50;;;16.20;99.90;;;;;;5094048;28;20589;-84
2022/06/17 00:39:09;;;;;;;3.72;2.72;;;16.20;99.90;;;;;;5093245;28;20187;-84
2022/06/17 00:41:37;;;;;;;2.67;2.47;;;16.20;99.90;;;;;;5094947;28;20182;-84
2022/06/17 00:44:19;;;;;;;4.20;2.65;;;16.20;99.90;;;;;;5094636;28;20175;-84
2022/06/17 00:46:52;;;;;;;3.83;2.83;;;16.20;99.90;;;;;;5095039;28;20163;-87
2022/06/17 00:49:34;;;;;;;3.17;2.40;;;16.20;99.90;;;;;;5094643;28;20198;-84
2022/06/17 00:52:04;;;;;;;2.97;2.20;;;16.20;99.90;;;;;;5094633;28;20166;-84
2022/06/17 00:54:42;;;;;;;3.00;2.50;;;16.20;99.90;;;;;;5094482;28;20204;-84
2022/06/17 00:57:29;;;;;;;4.40;2.75;;;16.20;99.90;;;;;;5094765;28;20169;-84
2022/06/17 01:00:07;;;;;;;3.03;2.65;;;16.20;99.90;;;;;;5094128;28;20567;-85
2022/06/17 01:02:36;;;;;;;3.83;2.80;;;16.10;99.90;;;;;;5094484;28;20232;-85
2022/06/17 01:05:03;;;;;;;4.63;2.97;;;16.10;99.90;;;;;;5094265;28;20540;-84
2022/06/17 01:07:34;;;;;;;4.88;2.90;;;16.10;99.90;;;;;;5076826;28;20191;-84
2022/06/17 01:10:08;;;;;;;2.55;2.35;;;16.10;99.90;;;;;;5093652;28;20583;-84
2022/06/17 01:12:46;;;;;;;3.78;2.72;;;16.10;99.90;;;;;;5093602;28;20530;-83
2022/06/17 01:15:14;;;;;;;3.20;2.15;;;16.00;99.90;;;;;;5094107;28;20717;-84
2022/06/17 01:17:41;;;;;;;2.90;2.60;;;16.00;99.90;;;;;;5094028;28;20177;-83
2022/06/17 01:20:10;;;;;;;3.58;2.50;;;16.00;99.90;;;;;;5094360;28;20213;-83
2022/06/17 01:22:42;;;;;;;3.00;2.65;;;15.90;99.90;;;;;;5093953;28;20170;-83
2022/06/17 01:25:10;;;;;;;2.83;2.45;;;15.90;99.90;;;;;;5092292;28;20181;-83
2022/06/17 01:27:42;;;;;;;4.72;2.25;;;15.90;99.90;;;;;;5092887;28;20184;-84
2022/06/17 01:30:23;;;;;;;3.80;2.20;;;15.80;99.90;;;;;;5093148;28;20234;-84
2022/06/17 01:32:55;;;;;;;3.83;2.40;;;15.80;99.90;;;;;;5094389;28;20182;-84
2022/06/17 01:35:23;;;;;;;4.05;2.22;;;15.80;99.90;;;;;;5093824;28;20213;-84
2022/06/17 01:37:49;;;;;;;2.15;1.83;;;15.80;99.90;;;;;;5092028;28;20178;-84
2022/06/17 01:40:17;;;;;;;2.60;2.20;;;15.80;99.90;;;;;;5092498;28;20193;-83
2022/06/17 01:42:44;;;;;;;2.13;1.90;;;15.80;99.90;;;;;;5092727;28;20183;-84
2022/06/17 01:45:12;;;;;;;2.33;2.13;;;15.80;99.90;;;;;;5097002;28;20202;-84
2022/06/17 01:47:40;;;;;;;2.83;2.50;;;15.80;99.90;;;;;;5100393;28;20246;-84
2022/06/17 01:50:20;;;;;;;2.45;2.10;;;15.80;99.90;;;;;;5096125;28;20206;-83
2022/06/17 01:53:03;;;;;;;2.40;1.70;;;15.70;99.90;;;;;;5093147;28;20257;-84
2022/06/17 01:55:37;;;;;;;2.70;2.30;;;15.80;99.90;;;;;;5093677;28;20159;-84
2022/06/17 01:58:26;;;;;;;6.20;2.20;;;15.80;99.90;;;;;;5092386;28;20253;-84
2022/06/17 02:00:52;;;;;;;2.78;2.35;;;15.80;99.90;;;;;;5090286;28;20194;-84
2022/06/17 02:03:28;;;;;;;2.30;1.88;;;15.70;99.90;;;;;;5092921;28;20647;-84
2022/06/17 02:06:17;;;;;;;2.30;2.03;;;15.80;99.90;;;;;;5093541;28;20202;-84
2022/06/17 02:08:43;;;;;;;3.65;2.35;;;15.80;99.90;;;;;;5093020;28;20210;-84
2022/06/17 02:11:09;;;;;;;3.45;2.60;;;15.80;99.90;;;;;;5091730;28;20174;-84
2022/06/17 02:13:35;;;;;;;2.22;1.95;;;15.80;99.90;;;;;;5093555;28;20174;-84
2022/06/17 02:16:03;;;;;;;3.40;2.10;;;15.70;99.90;;;;;;5093109;28;20178;-85
2022/06/17 02:18:30;;;;;;;2.28;2.05;;;15.70;99.90;;;;;;5093336;28;20265;-83
2022/06/17 02:20:58;;;;;;;2.83;2.35;;;15.70;99.90;;;;;;5093408;28;20187;-84
2022/06/17 02:23:26;;;;;;;2.80;2.40;;;15.60;99.90;;;;;;5093173;28;20178;-84
2022/06/17 02:25:53;;;;;;;5.43;2.75;;;15.60;99.90;;;;;;5093367;28;20190;-84
2022/06/17 02:28:21;;;;;;;2.83;2.63;;;15.60;99.90;;;;;;5091204;28;20803;-84
2022/06/17 02:30:48;;;;;;;2.17;1.98;;;15.60;99.90;;;;;;5093499;28;20728;-84
2022/06/17 02:33:14;;;;;;;5.00;2.90;;;15.60;99.90;;;;;;5091664;28;20227;-84
2022/06/17 02:36:01;;;;;;;12.45;2.92;;;15.50;99.90;;;;;;5093636;28;20174;-84
2022/06/17 02:38:30;;;;;;;3.42;2.60;;;15.50;99.90;;;;;;5093225;28;20241;-84
2022/06/17 02:41:05;;;;;;;3.25;2.42;;;15.50;99.90;;;;;;5092941;28;20171;-84
2022/06/17 02:43:41;;;;;;;4.00;2.83;;;15.60;99.90;;;;;;5093217;28;20159;-84
2022/06/17 02:46:12;;;;;;;3.05;2.78;;;15.50;99.90;;;;;;5093110;28;20172;-85
2022/06/17 02:49:06;;;;;;;5.30;3.28;;;15.50;99.90;;;;;;5093552;28;20191;-84
2022/06/17 02:51:34;;;;;;;3.65;2.95;;;15.50;99.90;;;;;;5095899;28;20273;-83
2022/06/17 02:54:02;;;;;;;3.88;2.95;;;15.50;99.90;;;;;;5097070;28;20174;-84
2022/06/17 02:56:31;;;;;;;4.45;3.40;;;15.50;99.90;;;;;;5096540;28;20220;-84
2022/06/17 02:59:18;;;;;;;4.63;3.40;;;15.50;99.90;;;;;;5097064;28;20178;-84
2022/06/17 03:01:44;;;;;;;5.45;2.92;;;15.40;99.90;;;;;;5095850;28;20186;-84
2022/06/17 03:04:20;;;;;;;5.22;3.22;;;15.40;99.90;;;;;;5095805;28;20186;-84
2022/06/17 03:06:47;;;;;;;5.20;3.53;;;15.40;99.90;;;;;;5097191;28;20174;-83
2022/06/17 03:09:32;;;;;;;4.30;3.33;;;15.40;99.90;;;;;;5096349;28;20198;-83
2022/06/17 03:12:01;;;;;;;3.45;3.00;;;15.40;99.90;;;;;;5097062;28;20170;-84
2022/06/17 03:14:41;;;;;;;5.15;3.80;;;15.40;99.90;;;;;;5096287;28;20266;-84
2022/06/17 03:17:11;;;;;;;7.47;3.10;;;15.40;99.90;;;;;;5095488;28;20205;-86
2022/06/17 03:19:38;;;;;;;3.45;2.78;;;15.30;99.90;;;;;;5095472;28;20175;-84
2022/06/17 03:22:06;;;;;;;3.70;2.95;;;15.40;99.90;;;;;;5096807;28;20175;-84
2022/06/17 03:24:57;;;;;;;3.25;2.70;;;15.40;99.90;;;;;;5095152;28;20224;-84
2022/06/17 03:27:50;;;;;;;4.65;3.50;;;15.40;99.90;;;;;;5094039;28;20190;-84
2022/06/17 03:30:26;;;;;;;4.53;3.70;;;15.40;99.90;;;;;;5091576;28;20230;-85
2022/06/17 03:33:06;;;;;;;3.63;3.17;;;15.40;99.90;;;;;;5096841;28;20182;-84
2022/06/17 03:35:35;;;;;;;3.88;3.00;;;15.40;99.90;;;;;;5094987;28;20219;-84
2022/06/17 03:38:31;;;;;;;4.13;3.30;;;15.40;99.90;;;;;;5096286;28;20201;-84
2022/06/17 03:41:04;;;;;;;4.25;3.35;;;15.40;99.90;;;;;;5095135;28;20175;-84
2022/06/17 03:44:00;;;;;;;8.13;3.42;;;15.30;99.90;;;;;;5096084;28;20178;-85
2022/06/17 03:46:31;;;;;;;3.60;3.03;;;15.30;99.90;;;;;;5091164;28;20218;-85
2022/06/17 03:49:06;;;;;;;4.35;3.22;;;15.30;99.90;;;;;;5094906;28;20214;-85
2022/06/17 03:51:35;;;;;;;4.32;3.13;;;15.20;99.90;;;;;;5096004;28;20357;-85
2022/06/17 03:54:01;;;;;;;4.95;3.60;;;15.30;99.90;;;;;;5094706;28;20198;-85
2022/06/17 03:56:36;;;;;;;4.00;3.05;;;15.30;99.90;;;;;;5094349;28;20635;-85
2022/06/17 03:59:06;;;;;;;4.80;3.17;;;15.30;99.90;;;;;;5096121;28;20169;-85
2022/06/17 04:01:43;;;;;;;4.07;3.33;;;15.30;99.90;;;;;;5095114;28;20224;-85
2022/06/17 04:04:20;;;;;;;4.50;3.30;;;15.30;99.90;;;;;;5095902;28;20245;-85
2022/06/17 04:06:50;;;;;;;3.58;3.22;;;15.30;99.90;;;;;;5095942;28;20166;-85
2022/06/17 04:09:21;;;;;;;4.50;3.08;;;15.30;99.90;;;;;;5095063;28;20206;-85
2022/06/17 04:12:02;;;;;;;3.13;2.78;;;15.30;99.90;;;;;;5095700;28;20251;-85
2022/06/17 04:14:36;;;;;;;3.83;2.92;;;15.30;99.90;;;;;;5095731;28;20174;-85
2022/06/17 04:17:12;;;;;;;5.03;2.80;;;15.30;99.90;;;;;;5095510;28;20170;-85
2022/06/17 04:19:39;;;;;;;3.55;3.10;;;15.30;99.90;;;;;;5095328;28;20563;-84
2022/06/17 04:22:19;;;;;;;3.20;2.45;;;15.40;99.90;;;;;;5095398;28;20236;-85
2022/06/17 04:24:49;;;;;;;3.58;2.78;;;15.40;99.90;;;;;;5095873;28;20164;-85
2022/06/17 04:27:15;;;;;;;5.55;2.53;;;15.50;99.90;;;;;;5095703;28;20197;-85
2022/06/17 04:29:46;;;;;;;3.80;2.72;;;15.60;99.90;;;;;;5093275;28;20234;-85
2022/06/17 04:32:33;;;;;;;6.75;3.53;;;15.70;99.90;;;;;;5095009;28;20750;-85
2022/06/17 04:34:59;;;;;;;3.55;2.65;;;15.70;99.90;;;;;;5095190;28;20167;-85
2022/06/17 04:37:25;;;;;;;2.70;2.50;;;15.70;99.90;;;;;;5060164;28;20205;-85
2022/06/17 04:39:58;;;;;;;4.50;2.92;;;15.70;99.90;;;;;;5094784;28;20690;-85
2022/06/17 04:42:38;;;;;;;4.53;2.45;;;15.70;99.90;;;;;;5093592;28;20489;-84
2022/06/17 04:45:05;;;;;;;2.78;2.45;;;15.70;99.90;;;;;;5094985;28;20194;-85
2022/06/17 04:47:32;;;;;;;4.00;3.10;;;15.70;99.90;;;;;;5094079;28;20190;-85
2022/06/17 04:50:02;;;;;;;3.80;2.38;;;15.70;99.90;;;;;;5092911;28;20206;-85
2022/06/17 04:52:41;;;;;;;3.10;2.58;;;15.80;99.90;;;;;;5092825;28;20181;-86
2022/06/17 04:55:23;;;;;;;2.60;2.10;;;15.80;99.90;;;;;;5094279;28;20163;-84
2022/06/17 04:57:49;;;;;;;3.75;2.35;;;15.90;99.90;;;;;;5094338;28;20193;-85
2022/06/17 05:00:21;;;;;;;2.22;1.80;;;15.90;99.90;;;;;;5092655;28;20183;-85
2022/06/17 05:02:48;;;;;;;3.60;2.38;;;16.00;99.90;;;;;;5092643;28;20171;-86
2022/06/17 05:05:20;;;;;;;3.20;1.88;;;16.00;99.90;;;;;;5100888;28;20186;-85
2022/06/17 05:07:49;;;;;;;2.22;1.67;;;16.10;99.90;;;;;;5099147;28;20166;-84
2022/06/17 05:10:19;;;;;;;2.20;1.67;;;16.10;99.90;;;;;;5094490;28;20666;-84
2022/06/17 05:12:54;;;;;;;2.42;1.95;;;16.00;99.90;;;;;;5092985;28;20191;-84
2022/06/17 05:15:21;;;;;;;2.47;1.80;;;16.20;99.90;;;;;;5097113;28;20224;-84
2022/06/17 05:17:47;;;;;;;2.90;1.65;;;16.20;99.90;;;;;;5091735;28;20178;-85
2022/06/17 05:20:19;;;;;;;4.20;2.60;;;16.30;99.90;;;;;;5075691;28;20197;-85
2022/06/17 05:22:49;;;;;;;4.03;2.00;;;16.40;99.90;;;;;;5093479;28;20961;-86
2022/06/17 05:25:21;;;;;;;3.53;2.08;;;16.40;99.90;;;;;;5092328;28;20235;-85
2022/06/17 05:27:47;;;;;;;2.92;1.52;;;16.50;99.90;;;;;;5093027;28;20635;-85
2022/06/17 05:30:14;;;;;;;3.85;2.70;;;16.50;99.90;;;;;;5091957;28;20593;-85
2022/06/17 05:32:43;;;;;;;4.60;1.70;;;16.70;99.90;;;;;;5093202;28;20615;-84
2022/06/17 05:35:09;;;;;;;1.52;1.42;;;16.70;99.90;;;;;;5092163;28;20178;-84
2022/06/17 05:37:35;;;;;;;2.08;1.80;;;16.70;99.90;;;;;;5074956;28;20700;-84
2022/06/17 05:40:01;;;;;;;2.10;1.90;;;16.80;99.90;;;;;;5093038;28;20195;-85
2022/06/17 05:42:27;;;;;;;2.20;1.92;;;16.80;99.90;;;;;;5092131;28;20174;-84
2022/06/17 05:44:53;;;;;;;2.63;1.85;;;16.90;99.90;;;;;;5093051;28;20178;-84
2022/06/17 05:47:18;;;;;;;2.28;1.90;;;17.00;99.90;;;;;;5093158;28;20167;-84
2022/06/17 05:49:44;;;;;;;4.78;1.80;;;17.10;99.90;;;;;;5074668;28;20218;-85
2022/06/17 05:52:11;;;;;;;2.28;1.85;;;17.20;99.90;;;;;;5093124;28;20175;-84
2022/06/17 05:54:36;;;;;;;1.88;1.48;;;17.40;99.90;;;;;;5091521;28;20614;-85
2022/06/17 05:57:03;;;;;;;4.20;1.88;;;17.40;99.90;;;;;;5092862;28;20206;-85
2022/06/17 05:59:28;;;;;;;2.20;1.85;;;17.30;99.90;;;;;;5091485;28;20193;-85
2022/06/17 06:01:54;;;;;;;3.63;2.65;;;17.40;99.90;;;;;;5092397;28;20178;-85
2022/06/17 06:04:20;;;;;;;2.10;1.88;;;17.40;99.90;;;;;;5092931;28;20224;-84
2022/06/17 06:06:45;;;;;;;1.80;1.45;;;17.40;99.90;;;;;;5093121;28;20183;-85
2022/06/17 06:09:11;;;;;;;1.67;1.58;;;17.40;99.90;;;;;;5091687;28;20545;-85
2022/06/17 06:11:37;;;;;;;2.20;1.80;;;17.50;99.90;;;;;;5091290;28;20210;-85
2022/06/17 06:14:03;;;;;;;1.30;1.20;;;17.60;99.90;;;;;;5092861;28;20178;-85
2022/06/17 06:16:30;;;;;;;2.70;1.30;;;17.70;99.90;;;;;;5092575;28;20708;-83
2022/06/17 06:18:56;;;;;;;2.05;1.75;;;17.80;99.90;;;;;;5091143;28;20205;-84
2022/06/17 06:21:21;;;;;;;4.63;2.15;;;17.80;99.90;;;;;;5091459;28;20663;-85
2022/06/17 06:23:47;;;;;;;3.80;1.20;;;17.80;99.90;;;;;;5074063;28;20623;-83
2022/06/17 06:26:18;;;;;;;1.55;1.25;;;17.90;99.90;;;;;;5091701;28;20186;-84
2022/06/17 06:28:43;;;;;;;1.20;1.10;;;18.00;99.90;;;;;;5092413;28;20253;-85
2022/06/17 06:31:28;;;;;;;1.40;1.20;;;18.10;99.90;;;;;;5091603;28;20639;-85
2022/06/17 06:33:55;;;;;;;2.70;1.00;;;18.20;99.90;;;;;;5091057;28;20637;-84
2022/06/17 06:36:21;;;;;;;1.35;1.25;;;18.20;99.90;;;;;;5091243;28;20185;-84
2022/06/17 06:38:47;;;;;;;2.78;1.55;;;18.30;99.90;;;;;;5091705;28;20187;-85
2022/06/17 06:41:13;;;;;;;2.42;1.60;;;18.30;99.90;;;;;;5093244;28;20635;-84
2022/06/17 06:43:39;;;;;;;1.67;1.35;;;18.30;99.90;;;;;;5092579;28;20224;-86
2022/06/17 06:46:08;;;;;;;4.55;3.42;;;18.30;99.90;;;;;;5092848;28;20224;-84
2022/06/17 06:48:34;;;;;;;1.55;1.45;;;18.40;99.90;;;;;;5093071;28;20198;-84
2022/06/17 06:50:59;;;;;;;1.02;1.02;;;18.40;99.90;;;;;;5092484;28;20202;-84
2022/06/17 06:53:25;;;;;;;3.80;1.52;;;18.50;99.90;;;;;;5075116;28;20521;-84
2022/06/17 06:55:50;;;;;;;0.75;0.75;;;18.70;99.90;;;;;;5074634;28;20182;-84
2022/06/17 06:58:20;;;;;;;3.47;1.45;;;18.70;99.90;;;;;;5091672;28;20179;-84
2022/06/17 07:00:48;;;;;;;1.50;1.20;;;18.80;99.90;;;;;;5092695;28;20167;-84
2022/06/17 07:03:15;;;;;;;2.05;0.95;;;19.00;99.90;;;;;;5093000;28;20170;-84
2022/06/17 07:05:43;;;;;;;1.58;1.30;;;19.00;99.90;;;;;;5091572;28;20223;-88
2022/06/17 07:08:11;;;;;;;3.22;1.13;;;19.00;99.90;;;;;;5093287;28;20332;-85
2022/06/17 07:10:38;;;;;;;1.95;1.10;;;18.90;99.90;;;;;;5092765;28;20209;-85
2022/06/17 07:13:05;;;;;;;1.35;1.25;;;18.70;99.90;;;;;;5092733;28;20179;-85
2022/06/17 07:15:32;;;;;;;1.38;0.85;;;18.60;99.90;;;;;;5092906;28;20179;-86
2022/06/17 07:18:00;;;;;;;2.35;1.25;;;18.60;99.90;;;;;;5092736;28;20209;-86
2022/06/17 07:20:29;;;;;;;1.63;1.10;;;18.50;99.90;;;;;;5092415;28;20211;-86
2022/06/17 07:22:54;;;;;;;1.83;1.17;;;18.40;99.90;;;;;;5092534;28;20179;-86
2022/06/17 07:25:21;;;;;;;1.17;1.00;;;18.50;99.90;;;;;;5091764;28;20189;-86
2022/06/17 07:27:47;;;;;;;2.40;1.50;;;18.70;99.90;;;;;;5093977;28;20174;-86
2022/06/17 07:30:20;;;;;;;3.05;2.25;;;18.80;99.90;;;;;;5091938;28;20743;-84
2022/06/17 07:32:47;;;;;;;2.65;1.27;;;18.90;99.90;;;;;;5092827;28;20163;-86
2022/06/17 07:35:15;;;;;;;2.60;1.20;;;18.90;99.90;;;;;;5093726;28;20179;-83
2022/06/17 07:40:28;;;;;;;1.98;1.20;;;19.10;99.90;;;;;;5096352;28;20536;-83
2022/06/17 07:42:54;;;;;;;1.50;0.93;;;18.90;99.90;;;;;;5095263;28;20183;-85
2022/06/17 07:45:20;;;;;;;1.20;1.10;;;18.70;99.90;;;;;;5096344;28;20257;-85
2022/06/17 07:47:48;;;;;;;2.25;1.73;;;18.60;99.90;;;;;;5078340;28;20257;-84
2022/06/17 07:50:20;;;;;;;2.03;1.13;;;18.70;99.90;;;;;;5095954;28;20238;-83
2022/06/17 07:52:46;;;;;;;2.45;1.17;;;18.90;99.90;;;;;;5095637;28;20166;-83
2022/06/17 07:55:13;;;;;;;1.60;1.00;;;19.20;99.90;;;;;;5094594;28;20179;-84
2022/06/17 07:57:39;;;;;;;2.35;1.42;;;19.40;99.90;;;;;;5096147;28;20175;-82
2022/06/17 08:00:12;;;;;;;1.38;1.20;;;19.50;99.90;;;;;;5094484;28;20228;-83
2022/06/17 08:02:38;;;;;;;2.40;0.98;;;19.70;99.90;;;;;;5095886;28;20161;-83
2022/06/17 08:05:04;;;;;;;1.50;0.80;;;19.80;99.90;;;;;;5077170;28;20178;-84
2022/06/17 08:07:29;;;;;;;0.93;0.90;;;19.90;99.90;;;;;;5077300;28;20258;-84
2022/06/17 08:09:55;;;;;;;1.40;0.98;;;19.70;99.90;;;;;;5094956;28;20677;-84
2022/06/17 08:12:21;;;;;;;1.95;1.20;;;19.50;99.90;;;;;;5093811;28;20578;-83
2022/06/17 08:14:47;;;;;;;3.75;1.50;;;19.30;99.90;;;;;;5094174;28;20190;-83
2022/06/17 08:17:16;;;;;;;2.00;1.30;;;19.30;99.90;;;;;;5076883;28;20643;-84
2022/06/17 08:19:43;;;;;;;1.75;1.10;;;19.40;99.90;;;;;;5094884;28;20671;-84
2022/06/17 08:22:10;;;;;;;0.70;0.70;;;19.60;99.90;;;;;;5094901;28;20174;-83
2022/06/17 08:24:36;;;;;;;1.20;1.00;;;19.90;99.90;;;;;;5094916;28;20183;-84
2022/06/17 08:27:02;;;;;;;3.70;1.27;;;20.10;99.90;;;;;;5101892;28;20179;-83
2022/06/17 08:29:29;;;;;;;1.38;0.95;;;20.30;99.90;;;;;;5100775;28;20670;-83
2022/06/17 08:31:55;;;;;;;1.23;0.85;;;20.40;99.90;;;;;;5095438;28;20179;-86
2022/06/17 08:34:21;;;;;;;1.80;1.00;;;20.40;99.90;;;;;;5095675;28;20178;-83
2022/06/17 08:36:48;;;;;;;2.15;1.30;;;20.00;99.90;;;;;;5077335;28;20532;-83
2022/06/17 08:39:14;;;;;;;1.27;1.10;;;19.80;99.90;;;;;;5094976;28;20248;-83
2022/06/17 08:42:07;;;;;;;2.22;1.25;;;19.90;99.90;;;;;;5094095;28;20174;-83
2022/06/17 08:45:20;;;;;;;0.80;0.80;;;19.60;99.90;;;;;;5095040;28;20525;-83
2022/06/17 08:48:00;;;;;;;1.70;1.45;;;19.40;99.90;;;;;;5075230;28;20200;-83
2022/06/17 08:51:04;;;;;;;1.88;1.20;;;19.60;99.90;;;;;;5095267;28;20331;-83
2022/06/17 08:53:58;;;;;;;1.48;0.80;;;19.70;99.90;;;;;;5072381;28;20232;-83
2022/06/17 08:56:54;;;;;;;1.67;0.98;;;20.00;99.90;;;;;;5095063;28;20659;-84
2022/06/17 08:59:33;;;;;;;2.42;1.42;;;20.00;99.90;;;;;;5094678;28;20179;-84
2022/06/17 09:02:19;;;;;;;1.13;0.90;;;19.70;99.90;;;;;;5093304;28;20695;-87
2022/06/17 09:05:00;;;;;;;0.90;0.90;;;19.70;99.90;;;;;;5094925;28;20186;-85
2022/06/17 09:07:47;;;;;;;1.05;0.95;;;19.90;99.90;;;;;;5095110;28;20159;-83
2022/06/17 09:10:45;;;;;;;1.10;0.95;;;20.10;99.90;;;;;;5093216;28;20214;-83
2022/06/17 09:13:58;;;;;;;1.65;1.38;;;20.20;99.90;;;;;;5093714;28;20658;-82
2022/06/17 09:16:51;;;;;;;1.42;1.27;;;20.20;99.90;;;;;;5092362;28;20217;-83
2022/06/17 09:19:25;;;;;;;0.90;0.90;;;20.00;99.90;;;;;;5094393;28;20172;-84
2022/06/17 09:21:53;;;;;;;1.85;1.38;;;20.20;99.90;;;;;;5094304;28;20167;-84
2022/06/17 09:24:30;;;;;;;2.53;1.50;;;20.10;99.90;;;;;;5094087;28;20167;-83
2022/06/17 09:27:00;;;;;;;2.65;1.30;;;20.20;99.90;;;;;;5094359;28;20166;-84
2022/06/17 09:29:32;;;;;;;1.63;0.80;;;20.50;99.90;;;;;;5092217;28;20229;-85
2022/06/17 09:32:20;;;;;;;1.13;1.02;;;20.80;99.90;;;;;;5094244;28;20597;-84
2022/06/17 09:35:04;;;;;;;1.50;1.08;;;21.00;99.90;;;;;;5094356;28;20159;-84
2022/06/17 09:37:54;;;;;;;1.10;1.00;;;21.00;99.90;;;;;;5094242;28;20173;-84
2022/06/17 09:40:24;;;;;;;1.50;1.20;;;21.30;99.90;;;;;;5092547;28;20178;-84
2022/06/17 09:42:57;;;;;;;0.73;0.73;;;21.30;99.90;;;;;;5094041;28;20167;-84
2022/06/17 09:45:25;;;;;;;1.10;1.00;;;21.10;99.90;;;;;;5092199;28;20186;-84
2022/06/17 09:48:08;;;;;;;1.38;1.00;;;21.10;99.90;;;;;;5093468;28;20182;-85
2022/06/17 09:50:45;;;;;;;2.25;1.33;;;20.90;99.90;;;;;;5091765;28;20279;-85
2022/06/17 09:53:32;;;;;;;1.10;1.00;;;20.60;99.90;;;;;;5092371;28;20643;-85
2022/06/17 09:56:25;;;;;;;0.90;0.77;;;20.60;99.90;;;;;;5092951;28;20204;-84
2022/06/17 09:59:35;;;;;;;1.77;1.17;;;21.00;99.90;;;;;;5092674;28;20174;-85
2022/06/17 10:02:30;;;;;;;0.80;0.80;;;21.10;99.90;;;;;;5070648;28;20231;-85
2022/06/17 10:04:58;;;;;;;2.65;1.30;;;20.80;99.90;;;;;;5070540;28;20560;-84
2022/06/17 10:07:40;;;;;;;1.52;1.10;;;20.60;99.90;;;;;;5085586;28;20199;-84
2022/06/17 10:10:32;;;;;;;1.23;0.90;;;20.70;99.90;;;;;;5092131;28;20204;-85
2022/06/17 10:13:26;;;;;;;2.55;1.15;;;21.20;98.60;;;;;;5080988;28;20170;-84
2022/06/17 10:19:11;;;;;;;6.95;1.30;;;21.60;94.80;;;;;;5091403;28;20170;-84
2022/06/17 10:21:43;;;;;;;1.05;0.82;;;21.40;96.70;;;;;;5102385;28;20264;-86
2022/06/17 10:24:26;;;;;;;2.17;0.70;;;21.50;95.70;;;;;;5107316;28;20299;-86
2022/06/17 10:27:24;;;;;;;1.02;1.00;;;21.60;96.00;;;;;;5092217;28;20167;-85
2022/06/17 10:30:12;;;;;;;0.77;0.77;;;21.80;94.40;;;;;;5108403;28;20230;-85
2022/06/17 10:32:42;;;;;;;1.02;0.77;;;21.50;92.00;;;;;;5108189;28;20699;-85
2022/06/17 10:35:22;;;;;;;8.20;1.00;;;21.20;93.10;;;;;;5091619;28;20204;-85
2022/06/17 10:37:49;;;;;;;0.68;0.68;;;21.10;94.80;;;;;;5090431;28;20173;-88
2022/06/17 10:40:17;;;;;;;0.77;0.70;;;21.50;94.80;;;;;;5074094;28;20186;-84
2022/06/17 10:42:46;;;;;;;1.73;0.85;;;21.80;94.50;;;;;;5091042;28;20171;-85
2022/06/17 10:45:15;;;;;;;1.13;0.80;;;21.90;93.80;;;;;;5074110;28;20193;-84
2022/06/17 10:47:55;;;;;;;3.70;0.90;;;21.90;94.00;;;;;;5092165;28;20545;-84
2022/06/17 10:50:28;;;;;;;0.60;0.60;;;22.00;92.70;;;;;;5088317;28;20839;-85
2022/06/17 10:53:24;;;;;;;0.95;0.60;;;22.30;91.90;;;;;;5087591;28;20181;-86
2022/06/17 10:55:53;;;;;;;3.25;1.88;;;22.00;91.60;;;;;;5104645;28;20183;-83
2022/06/17 10:58:32;;;;;;;2.13;1.35;;;21.90;92.60;;;;;;5090833;28;20195;-84
2022/06/17 11:01:07;;;;;;;1.95;1.05;;;21.80;92.20;;;;;;5089977;28;20296;-85
2022/06/17 11:03:33;;;;;;;0.60;0.60;;;21.40;91.30;;;;;;5090105;28;20162;-84
2022/06/17 11:06:10;;;;;;;1.08;0.70;;;21.40;92.90;;;;;;5089395;28;20186;-85
2022/06/17 11:08:48;;;;;;;2.50;2.03;;;21.80;92.60;;;;;;5091305;28;20163;-84
2022/06/17 11:14:05;;;;;;;0.68;0.68;;;21.80;90.10;;;;;;5094770;28;20178;-84
2022/06/17 11:16:41;;;;;;;0.52;0.52;;;21.70;91.30;;;;;;5094355;28;20175;-85
2022/06/17 11:19:13;;;;;;;1.05;0.80;;;21.70;91.40;;;;;;5095693;28;20170;-85
2022/06/17 11:21:50;;;;;;;0.95;0.80;;;21.50;90.30;;;;;;5091238;28;20983;-84
2022/06/17 11:24:32;;;;;;;0.70;0.70;;;21.20;90.10;;;;;;5093736;28;20202;-85
2022/06/17 11:27:17;;;;;;;1.75;0.80;;;21.10;90.90;;;;;;5092917;28;20838;-84
2022/06/17 11:29:46;;;;;;;0.93;0.70;;;21.00;90.70;;;;;;5094087;28;20218;-83
2022/06/17 11:32:19;;;;;;;0.55;0.55;;;20.80;89.00;;;;;;5095168;28;20183;-84
2022/06/17 11:34:49;;;;;;;1.10;0.75;;;21.00;90.10;;;;;;5109930;28;20174;-83
2022/06/17 11:37:19;;;;;;;1.13;0.77;;;21.40;90.50;;;;;;5109596;28;20178;-83
2022/06/17 11:39:45;;;;;;;0.75;0.70;;;21.70;90.00;;;;;;5094890;28;20170;-86
2022/06/17 11:42:24;;;;;;;0.80;0.80;;;22.00;86.40;;;;;;5095174;28;20728;-84
2022/06/17 11:44:59;;;;;;;0.70;0.70;;;22.00;86.20;;;;;;5096305;28;20379;-86
2022/06/17 11:47:27;;;;;;;1.23;1.13;;;22.00;87.00;;;;;;5095867;28;20178;-85
2022/06/17 11:49:57;;;;;;;1.10;0.82;;;22.20;87.20;;;;;;5099297;28;20242;-87
2022/06/17 11:52:30;;;;;;;4.60;0.75;;;22.10;84.80;;;;;;5108527;28;20175;-82
2022/06/17 11:54:56;;;;;;;0.85;0.70;;;21.70;84.30;;;;;;5105691;28;20166;-85
2022/06/17 11:57:27;;;;;;;0.60;0.60;;;21.70;83.40;;;;;;5080515;28;20217;-83
2022/06/17 11:59:57;;;;;;;0.43;0.40;;;21.80;83.60;;;;;;5087335;28;20292;-84
2022/06/17 12:02:22;;;;;;;0.63;0.63;;;22.00;84.10;;;;;;5094343;28;20177;-84
2022/06/17 12:04:59;;;;;;;0.75;0.65;;;22.20;84.50;;;;;;5094969;28;20178;-84
2022/06/17 12:07:49;;;;;;;1.88;1.13;;;22.30;83.00;;;;;;5093652;28;20158;-84
2022/06/17 12:10:20;;;;;;;0.93;0.90;;;22.30;81.70;;;;;;5110123;28;20229;-85
2022/06/17 12:12:48;;;;;;;0.80;0.80;;;22.10;81.90;;;;;;5092926;28;20176;-84
2022/06/17 12:15:23;;;;;;;1.67;1.13;;;22.00;84.00;;;;;;5091231;28;20187;-84
2022/06/17 12:17:52;;;;;;;1.23;0.73;;;22.10;81.90;;;;;;5094456;28;20229;-84
2022/06/17 12:20:17;;;;;;;3.22;0.70;;;22.40;79.90;;;;;;5095486;28;20257;-83
2022/06/17 12:22:49;;;;;;;0.50;0.50;;;22.50;80.20;;;;;;5094913;28;20272;-84
2022/06/17 12:25:18;;;;;;;0.65;0.65;;;22.60;79.90;;;;;;5095339;28;20166;-83
2022/06/17 12:27:55;;;;;;;0.50;0.50;;;22.40;78.30;;;;;;5095117;28;20204;-83
2022/06/17 12:30:48;;;;;;;1.42;0.73;;;22.10;79.80;;;;;;5095255;28;20191;-83
2022/06/17 12:33:34;;;;;;;1.23;0.60;;;21.80;79.30;;;;;;5095642;28;20201;-84
2022/06/17 12:36:08;;;;;;;3.92;1.30;;;21.70;79.50;;;;;;5093622;28;20198;-84
2022/06/17 12:38:39;;;;;;;0.60;0.60;;;22.00;83.50;;;;;;5095154;28;20158;-83
2022/06/17 12:41:11;;;;;;;1.08;0.73;;;22.30;78.70;;;;;;5094878;28;20716;-84
2022/06/17 12:43:40;;;;;;;1.13;0.82;;;22.40;77.50;;;;;;5093827;28;20231;-84
2022/06/17 12:46:17;;;;;;;0.60;0.60;;;22.50;77.30;;;;;;5095457;28;20198;-83
2022/06/17 12:54:51;;;;;;;0.60;0.60;;;22.60;77.50;;;;;;5094802;28;20531;-84
2022/06/17 12:57:28;;;;;;;0.68;0.68;;;22.60;73.80;;;;;;5094783;28;20175;-84
2022/06/17 13:00:11;;;;;;;1.23;0.68;;;22.60;72.70;;;;;;5094898;28;20253;-82
2022/06/17 13:02:55;;;;;;;0.50;0.50;;;22.50;73.90;;;;;;5093716;28;20182;-84
2022/06/17 13:05:32;;;;;;;0.65;0.40;;;22.40;75.10;;;;;;5094357;28;20206;-83
2022/06/17 13:08:27;;;;;;;0.60;0.60;;;22.30;74.50;;;;;;5094994;28;20162;-83
2022/06/17 13:11:03;;;;;;;0.50;0.50;;;22.40;74.00;;;;;;5094050;28;20275;-83
2022/06/17 13:13:54;;;;;;;0.77;0.60;;;22.50;75.10;;;;;;5094760;28;20158;-83
2022/06/17 13:16:26;;;;;;;0.60;0.52;;;22.60;74.60;;;;;;5093672;28;20174;-83
2022/06/17 13:19:23;;;;;;;0.80;0.63;;;22.60;75.90;;;;;;5093119;28;20511;-83
2022/06/17 13:22:03;;;;;;;2.80;0.68;;;22.70;74.30;;;;;;5086471;28;20223;-83
2022/06/17 13:25:02;;;;;;;0.80;0.60;;;22.80;74.20;;;;;;5093640;28;20181;-83
2022/06/17 13:27:34;;;;;;;0.40;0.40;;;22.20;74.40;;;;;;5094529;28;20183;-83
2022/06/17 13:30:03;;;;;;;0.80;0.80;;;22.80;73.20;;;;;;5094178;28;20284;-84
2022/06/17 13:32:39;;;;;;;0.57;0.50;;;23.00;74.70;;;;;;5094525;28;20166;-83
2022/06/17 13:35:29;;;;;;;0.65;0.65;;;23.10;74.30;;;;;;5093939;28;20177;-84